createdAt,value
2022-09-01T00:00:29.187Z,20.75
2022-09-01T00:01:05.039Z,16.10
2022-09-01T00:01:43.325Z,22.95
2022-09-01T00:02:16.590Z,24.95
2022-09-01T00:02:54.106Z,14.50
2022-09-01T00:03:27.011Z,14.80
2022-09-01T00:04:03.922Z,23.25
2022-09-01T00:04:40.884Z,19.55
2022-09-01T00:05:15.365Z,26.33
2022-09-01T00:05:57.253Z,12.85
2022-09-01T00:06:33.888Z,29.27
2022-09-01T00:07:06.126Z,23.30
2022-09-01T00:07:38.371Z,23.15
2022-09-01T00:08:10.572Z,24.25
2022-09-01T00:08:45.356Z,18.85
2022-09-01T00:09:19.800Z,21.95
2022-09-01T00:09:51.969Z,16.23
2022-09-01T00:10:26.842Z,30.23
2022-09-01T00:10:58.985Z,17.48
2022-09-01T00:11:32.685Z,45.28
2022-09-01T00:12:09.359Z,18.95
2022-09-01T00:12:41.954Z,27.90
2022-09-01T00:13:14.774Z,14.40
2022-09-01T00:13:50.565Z,19.48
2022-09-01T00:14:29.969Z,18.40
2022-09-01T00:15:39.592Z,16.60
2022-09-01T00:16:15.380Z,27.60
2022-09-01T00:16:47.623Z,26.88
2022-09-01T00:17:26.498Z,30.13
2022-09-01T00:18:01.802Z,23.45
2022-09-01T00:18:34.792Z,33.33
2022-09-01T00:19:10.368Z,17.08
2022-09-01T00:19:44.684Z,33.00
2022-09-01T00:20:20.480Z,11.95
2022-09-01T00:20:59.299Z,31.60
2022-09-01T00:21:35.090Z,13.60
2022-09-01T00:22:08.309Z,12.90
2022-09-01T00:22:43.131Z,18.35
2022-09-01T00:23:15.289Z,20.25
2022-09-01T00:23:47.902Z,15.65
2022-09-01T00:24:22.730Z,19.88
2022-09-01T00:24:55.020Z,19.08
2022-09-01T00:25:28.369Z,22.50
2022-09-01T00:26:03.282Z,15.73
2022-09-01T00:26:36.008Z,39.75
2022-09-01T00:27:10.756Z,27.30
2022-09-01T00:27:43.366Z,26.40
2022-09-01T00:28:15.636Z,32.28
2022-09-01T00:28:51.185Z,32.80
2022-09-01T00:29:24.492Z,11.60
2022-09-01T00:29:57.040Z,26.23
2022-09-01T00:30:31.775Z,18.58
2022-09-01T00:31:06.431Z,14.50
2022-09-01T00:31:39.086Z,20.08
2022-09-01T00:32:14.675Z,20.17
2022-09-01T00:32:47.577Z,18.27
2022-09-01T00:33:22.411Z,29.88
2022-09-01T00:33:57.433Z,14.68
2022-09-01T00:34:29.610Z,28.75
2022-09-01T00:35:02.223Z,22.00
2022-09-01T00:35:37.511Z,35.22
2022-09-01T00:36:10.105Z,12.07
2022-09-01T00:36:42.274Z,29.05
2022-09-01T00:37:17.079Z,18.25
2022-09-01T00:37:49.434Z,24.17
2022-09-01T00:38:21.705Z,17.10
2022-09-01T00:38:57.339Z,21.92
2022-09-01T00:39:29.698Z,18.70
2022-09-01T00:40:04.583Z,21.00
2022-09-01T00:40:37.098Z,26.27
2022-09-01T00:41:09.863Z,22.50
2022-09-01T00:41:47.445Z,23.58
2022-09-01T00:42:19.700Z,22.58
2022-09-01T00:42:54.014Z,18.02
2022-09-01T00:43:42.451Z,22.25
2022-09-01T00:44:19.046Z,32.00
2022-09-01T00:44:51.215Z,38.33
2022-09-01T00:45:26.175Z,14.90
2022-09-01T00:45:58.338Z,8.75
2022-09-01T00:46:37.018Z,30.20
2022-09-01T00:47:24.725Z,18.30
2022-09-01T00:47:57.360Z,36.53
2022-09-01T00:48:32.737Z,23.13
2022-09-01T00:49:11.237Z,28.35
2022-09-01T00:49:47.631Z,27.92
2022-09-01T00:50:24.730Z,35.58
2022-09-01T00:50:57.034Z,19.95
2022-09-01T00:51:30.196Z,30.15
2022-09-01T00:52:08.718Z,18.25
2022-09-01T00:52:44.960Z,29.67
2022-09-01T00:53:17.163Z,16.15
2022-09-01T00:53:52.583Z,23.85
2022-09-01T00:54:27.650Z,15.63
2022-09-01T00:55:05.452Z,25.35
2022-09-01T00:55:40.981Z,15.18
2022-09-01T00:56:14.302Z,14.43
2022-09-01T00:56:47.087Z,18.35
2022-09-01T00:57:28.643Z,19.13
2022-09-01T00:58:02.787Z,32.17
2022-09-01T00:58:36.363Z,20.35
2022-09-01T00:59:13.029Z,16.52
2022-09-01T00:59:51.974Z,21.30
2022-09-01T01:00:29.889Z,7.88
2022-09-01T01:01:02.858Z,2.53
2022-09-01T01:01:38.409Z,13.07
2022-09-01T01:02:11.409Z,2.00
2022-09-01T01:02:45.249Z,15.65
2022-09-01T01:03:20.303Z,3.70
2022-09-01T01:03:55.417Z,19.83
2022-09-01T01:04:27.610Z,7.40
2022-09-01T01:05:03.964Z,9.98
2022-09-01T01:05:42.698Z,6.18
2022-09-01T01:06:17.340Z,12.18
2022-09-01T01:06:58.971Z,9.52
2022-09-01T01:07:33.518Z,3.42
2022-09-01T01:08:08.282Z,6.68
2022-09-01T01:08:57.161Z,6.82
2022-09-01T01:09:33.256Z,3.65
2022-09-01T01:10:07.147Z,4.80
2022-09-01T01:10:45.118Z,6.13
2022-09-01T01:11:18.032Z,15.60
2022-09-01T01:11:50.407Z,16.20
2022-09-01T01:12:28.130Z,3.47
2022-09-01T01:13:02.089Z,18.55
2022-09-01T01:13:48.897Z,4.57
2022-09-01T01:14:23.923Z,5.30
2022-09-01T01:14:57.167Z,11.20
2022-09-01T01:15:30.010Z,7.28
2022-09-01T01:16:08.367Z,2.58
2022-09-01T01:16:45.254Z,4.40
2022-09-01T01:17:20.446Z,7.45
2022-09-01T01:17:52.655Z,6.38
2022-09-01T01:18:24.789Z,3.70
2022-09-01T01:18:59.966Z,2.58
2022-09-01T01:19:55.853Z,2.45
2022-09-01T01:20:47.816Z,5.28
2022-09-01T01:21:46.774Z,9.77
2022-09-01T01:22:39.759Z,4.35
2022-09-01T01:23:24.260Z,18.02
2022-09-01T01:24:02.969Z,5.10
2022-09-01T01:24:37.798Z,15.38
2022-09-01T01:25:12.982Z,5.07
2022-09-01T01:25:48.589Z,4.32
2022-09-01T01:26:21.371Z,1.88
2022-09-01T01:26:59.785Z,2.42
2022-09-01T01:27:33.763Z,13.52
2022-09-01T01:28:18.743Z,14.40
2022-09-01T01:28:59.515Z,7.03
2022-09-01T01:29:33.542Z,12.75
2022-09-01T01:30:10.064Z,3.70
2022-09-01T01:30:51.278Z,15.35
2022-09-01T01:31:24.790Z,4.60
2022-09-01T01:31:57.256Z,12.05
2022-09-01T01:32:32.663Z,2.42
2022-09-01T01:33:06.859Z,13.52
2022-09-01T01:33:47.211Z,6.85
2022-09-01T01:34:19.672Z,12.57
2022-09-01T01:34:53.952Z,2.67
2022-09-01T01:35:26.395Z,15.82
2022-09-01T01:36:02.381Z,16.27
2022-09-01T01:36:36.865Z,12.15
2022-09-01T01:37:14.233Z,5.63
2022-09-01T01:37:50.663Z,10.25
2022-09-01T01:38:24.255Z,6.63
2022-09-01T01:39:03.603Z,7.32
2022-09-01T01:39:42.999Z,6.80
2022-09-01T01:40:18.041Z,6.75
2022-09-01T01:40:55.001Z,4.70
2022-09-01T01:41:30.130Z,56.83
2022-09-01T01:42:02.703Z,9.57
2022-09-01T01:42:38.019Z,6.25
2022-09-01T01:43:15.864Z,18.42
2022-09-01T01:43:51.213Z,8.07
2022-09-01T01:44:28.437Z,16.73
2022-09-01T01:45:07.228Z,3.53
2022-09-01T01:45:43.567Z,15.77
2022-09-01T01:46:18.306Z,11.40
2022-09-01T01:46:56.357Z,2.17
2022-09-01T01:47:29.744Z,6.85
2022-09-01T01:48:08.759Z,6.57
2022-09-01T01:48:47.175Z,7.65
2022-09-01T01:49:24.592Z,2.55
2022-09-01T01:49:57.550Z,11.48
2022-09-01T01:50:38.060Z,7.78
2022-09-01T01:51:12.118Z,13.13
2022-09-01T01:51:46.948Z,5.70
2022-09-01T01:52:26.185Z,18.92
2022-09-01T01:53:01.511Z,5.07
2022-09-01T01:53:34.749Z,7.10
2022-09-01T01:54:09.946Z,7.60
2022-09-01T01:54:46.223Z,14.68
2022-09-01T01:55:19.513Z,2.53
2022-09-01T01:55:54.886Z,8.57
2022-09-01T01:56:27.137Z,32.35
2022-09-01T01:56:59.550Z,10.18
2022-09-01T01:57:35.646Z,7.13
2022-09-01T01:58:12.360Z,6.13
2022-09-01T01:58:45.422Z,8.75
2022-09-01T01:59:24.951Z,2.30
2022-09-01T01:59:57.514Z,4.40
2022-09-01T02:00:35.185Z,7.93
2022-09-01T02:01:13.271Z,4.88
2022-09-01T02:01:51.568Z,13.77
2022-09-01T02:02:24.001Z,14.32
2022-09-01T02:02:59.685Z,13.73
2022-09-01T02:03:38.803Z,24.85
2022-09-01T02:04:12.086Z,6.93
2022-09-01T02:04:47.107Z,15.05
2022-09-01T02:05:25.005Z,7.13
2022-09-01T02:05:58.126Z,7.55
2022-09-01T02:06:37.241Z,6.15
2022-09-01T02:07:12.108Z,23.95
2022-09-01T02:07:44.336Z,3.70
2022-09-01T02:08:22.060Z,6.97
2022-09-01T02:08:58.382Z,11.48
2022-09-01T02:09:30.657Z,5.32
2022-09-01T02:10:09.107Z,22.90
2022-09-01T02:10:44.186Z,8.20
2022-09-01T02:11:19.258Z,8.65
2022-09-01T02:11:54.525Z,6.10
2022-09-01T02:12:27.072Z,63.42
2022-09-01T02:13:07.753Z,19.05
2022-09-01T02:14:13.659Z,10.23
2022-09-01T02:14:50.280Z,13.23
2022-09-01T02:15:22.555Z,12.45
2022-09-01T02:15:56.870Z,5.75
2022-09-01T02:16:33.628Z,9.57
2022-09-01T02:17:07.612Z,10.18
2022-09-01T02:17:40.386Z,19.52
2022-09-01T02:18:16.633Z,7.28
2022-09-01T02:18:54.108Z,8.35
2022-09-01T02:19:26.510Z,2.05
2022-09-01T02:19:59.469Z,10.48
2022-09-01T02:20:32.943Z,4.18
2022-09-01T02:21:16.374Z,9.45
2022-09-01T02:21:54.490Z,6.38
2022-09-01T02:22:29.427Z,2.55
2022-09-01T02:23:11.719Z,9.65
2022-09-01T02:23:44.180Z,8.40
2022-09-01T02:24:18.948Z,2.40
2022-09-01T02:24:52.644Z,7.60
2022-09-01T02:25:32.049Z,2.03
2022-09-01T02:26:16.116Z,46.97
2022-09-01T02:26:52.504Z,25.42
2022-09-01T02:27:27.042Z,10.48
2022-09-01T02:28:00.851Z,16.70
2022-09-01T02:28:40.175Z,4.05
2022-09-01T02:29:21.072Z,10.27
2022-09-01T02:29:55.574Z,6.15
2022-09-01T02:30:33.098Z,9.63
2022-09-01T02:31:09.083Z,13.50
2022-09-01T02:31:41.996Z,3.72
2022-09-01T02:32:22.189Z,7.68
2022-09-01T02:32:54.577Z,2.05
2022-09-01T02:33:28.659Z,3.72
2022-09-01T02:34:03.942Z,5.35
2022-09-01T02:34:40.052Z,17.00
2022-09-01T02:35:13.630Z,3.03
2022-09-01T02:35:49.703Z,17.05
2022-09-01T02:36:22.681Z,21.73
2022-09-01T02:36:56.864Z,20.98
2022-09-01T02:37:33.035Z,2.78
2022-09-01T02:38:05.934Z,16.90
2022-09-01T02:38:39.511Z,7.13
2022-09-01T02:39:14.389Z,8.85
2022-09-01T02:39:46.616Z,4.90
2022-09-01T02:40:19.829Z,15.40
2022-09-01T02:40:58.635Z,8.05
2022-09-01T02:41:32.855Z,47.65
2022-09-01T02:42:05.680Z,9.50
2022-09-01T02:42:43.505Z,25.75
2022-09-01T02:43:19.639Z,8.20
2022-09-01T02:43:54.295Z,16.65
2022-09-01T02:44:29.293Z,12.10
2022-09-01T02:45:02.725Z,10.00
2022-09-01T02:45:36.166Z,33.58
2022-09-01T02:46:12.286Z,23.05
2022-09-01T02:46:46.599Z,8.52
2022-09-01T02:47:23.404Z,11.57
2022-09-01T02:47:57.366Z,5.28
2022-09-01T02:48:37.365Z,6.97
2022-09-01T02:49:15.416Z,8.80
2022-09-01T02:49:47.659Z,15.48
2022-09-01T02:50:24.988Z,8.10
2022-09-01T02:50:59.478Z,10.02
2022-09-01T02:51:32.138Z,12.82
2022-09-01T02:52:08.115Z,4.13
2022-09-01T02:52:40.590Z,10.50
2022-09-01T02:53:15.543Z,12.80
2022-09-01T02:53:53.153Z,14.38
2022-09-01T02:54:27.942Z,4.50
2022-09-01T02:55:03.293Z,9.40
2022-09-01T02:55:35.764Z,8.85
2022-09-01T02:56:14.403Z,6.13
2022-09-01T02:56:49.991Z,7.75
2022-09-01T02:57:25.085Z,26.42
2022-09-01T02:57:58.355Z,3.78
2022-09-01T02:58:35.448Z,18.77
2022-09-01T02:59:13.101Z,7.15
2022-09-01T02:59:45.664Z,24.83
2022-09-01T03:00:29.168Z,9.18
2022-09-01T03:01:01.460Z,32.40
2022-09-01T03:01:35.171Z,22.08
2022-09-01T03:02:10.048Z,9.80
2022-09-01T03:02:42.599Z,8.60
2022-09-01T03:03:17.950Z,6.88
2022-09-01T03:03:54.361Z,6.75
2022-09-01T03:04:27.613Z,12.98
2022-09-01T03:05:00.323Z,10.88
2022-09-01T03:05:36.337Z,16.83
2022-09-01T03:06:10.280Z,11.45
2022-09-01T03:06:42.922Z,15.02
2022-09-01T03:07:18.470Z,11.00
2022-09-01T03:07:56.611Z,9.05
2022-09-01T03:08:31.821Z,12.55
2022-09-01T03:09:11.297Z,13.02
2022-09-01T03:09:43.903Z,23.38
2022-09-01T03:10:16.566Z,11.38
2022-09-01T03:10:52.146Z,18.35
2022-09-01T03:11:29.372Z,19.15
2022-09-01T03:12:02.018Z,33.63
2022-09-01T03:12:36.886Z,13.43
2022-09-01T03:13:12.862Z,20.27
2022-09-01T03:13:45.415Z,20.02
2022-09-01T03:14:18.631Z,29.02
2022-09-01T03:14:53.363Z,9.73
2022-09-01T03:15:26.039Z,10.77
2022-09-01T03:15:58.209Z,40.33
2022-09-01T03:16:33.502Z,33.28
2022-09-01T03:17:06.196Z,16.38
2022-09-01T03:17:41.949Z,23.73
2022-09-01T03:18:18.752Z,17.60
2022-09-01T03:18:52.023Z,42.28
2022-09-01T03:19:24.542Z,11.57
2022-09-01T03:19:59.923Z,32.17
2022-09-01T03:20:34.647Z,16.80
2022-09-01T03:21:16.208Z,18.70
2022-09-01T03:21:49.340Z,17.33
2022-09-01T03:22:29.704Z,17.38
2022-09-01T03:23:02.386Z,23.13
2022-09-01T03:23:34.985Z,37.25
2022-09-01T03:24:10.715Z,79.32
2022-09-01T03:24:43.047Z,64.60
2022-09-01T03:25:15.925Z,55.70
2022-09-01T03:25:50.852Z,39.75
2022-09-01T03:26:23.974Z,45.45
2022-09-01T03:26:58.787Z,54.33
2022-09-01T03:27:33.701Z,19.90
2022-09-01T03:28:06.438Z,48.13
2022-09-01T03:28:39.193Z,25.05
2022-09-01T03:29:14.735Z,31.45
2022-09-01T03:29:47.021Z,18.65
2022-09-01T03:30:19.834Z,40.80
2022-09-01T03:30:57.363Z,25.08
2022-09-01T03:31:31.331Z,21.23
2022-09-01T03:32:06.569Z,14.15
2022-09-01T03:32:42.188Z,49.95
2022-09-01T03:33:14.483Z,28.13
2022-09-01T03:33:47.636Z,31.75
2022-09-01T03:34:30.093Z,29.08
2022-09-01T03:35:02.665Z,35.75
2022-09-01T03:35:34.872Z,93.20
2022-09-01T03:36:19.376Z,80.80
2022-09-01T03:36:56.614Z,40.78
2022-09-01T03:37:34.439Z,48.80
2022-09-01T03:38:06.752Z,37.88
2022-09-01T03:38:44.158Z,46.10
2022-09-01T03:39:18.269Z,45.65
2022-09-01T03:39:50.454Z,35.65
2022-09-01T03:40:34.410Z,45.80
2022-09-01T03:41:06.685Z,38.88
2022-09-01T03:41:39.116Z,76.20
2022-09-01T03:42:26.136Z,44.38
2022-09-01T03:42:58.599Z,63.97
2022-09-01T03:43:35.971Z,45.70
2022-09-01T03:44:13.995Z,19.45
2022-09-01T03:44:47.852Z,28.15
2022-09-01T03:45:20.609Z,46.08
2022-09-01T03:45:55.551Z,41.17
2022-09-01T03:46:35.863Z,41.88
2022-09-01T03:47:15.460Z,54.03
2022-09-01T03:47:48.126Z,65.43
2022-09-01T03:48:21.407Z,56.70
2022-09-01T03:49:00.944Z,45.22
2022-09-01T03:49:33.582Z,56.75
2022-09-01T03:50:14.010Z,56.83
2022-09-01T03:50:47.268Z,56.03
2022-09-01T03:51:21.102Z,38.85
2022-09-01T03:51:57.541Z,46.20
2022-09-01T03:52:30.252Z,20.75
2022-09-01T03:53:02.949Z,42.92
2022-09-01T03:53:40.525Z,30.45
2022-09-01T03:54:13.345Z,19.75
2022-09-01T03:54:46.124Z,47.20
2022-09-01T03:55:23.512Z,88.35
2022-09-01T03:55:57.789Z,72.40
2022-09-01T03:56:30.110Z,98.22
2022-09-01T03:57:06.155Z,101.57
2022-09-01T03:57:42.550Z,50.22
2022-09-01T03:58:19.239Z,39.95
2022-09-01T03:58:54.842Z,44.28
2022-09-01T03:59:27.241Z,51.92
2022-09-01T04:00:00.253Z,22.63
2022-09-01T04:00:38.879Z,39.47
2022-09-01T04:01:13.924Z,29.52
2022-09-01T04:01:46.584Z,31.08
2022-09-01T04:02:23.117Z,36.28
2022-09-01T04:02:59.446Z,33.22
2022-09-01T04:03:36.174Z,23.15
2022-09-01T04:04:13.873Z,28.10
2022-09-01T04:04:46.458Z,40.35
2022-09-01T04:05:23.114Z,41.53
2022-09-01T04:05:58.357Z,39.05
2022-09-01T04:06:31.012Z,42.97
2022-09-01T04:07:03.192Z,31.15
2022-09-01T04:07:39.158Z,47.60
2022-09-01T04:08:12.833Z,39.58
2022-09-01T04:08:47.348Z,81.55
2022-09-01T04:09:22.177Z,49.88
2022-09-01T04:09:54.519Z,38.08
2022-09-01T04:10:26.891Z,74.18
2022-09-01T04:11:05.319Z,55.17
2022-09-01T04:11:45.194Z,71.93
2022-09-01T04:12:22.992Z,38.25
2022-09-01T04:13:00.304Z,51.42
2022-09-01T04:13:36.443Z,34.75
2022-09-01T04:14:13.539Z,70.38
2022-09-01T04:14:48.205Z,38.80
2022-09-01T04:15:20.561Z,62.33
2022-09-01T04:15:56.482Z,20.73
2022-09-01T04:16:45.732Z,57.75
2022-09-01T04:17:33.012Z,51.80
2022-09-01T04:18:09.735Z,61.55
2022-09-01T04:18:42.280Z,59.22
2022-09-01T04:19:20.571Z,33.83
2022-09-01T04:19:55.956Z,36.30
2022-09-01T04:20:29.268Z,55.47
2022-09-01T04:21:01.574Z,52.65
2022-09-01T04:21:38.411Z,57.25
2022-09-01T04:22:17.737Z,48.75
2022-09-01T04:22:53.801Z,37.80
2022-09-01T04:23:30.132Z,64.20
2022-09-01T04:24:05.763Z,48.60
2022-09-01T04:24:45.091Z,97.53
2022-09-01T04:25:23.175Z,84.47
2022-09-01T04:25:57.648Z,77.45
2022-09-01T04:26:33.987Z,81.70
2022-09-01T04:27:09.119Z,70.68
2022-09-01T04:27:42.189Z,72.07
2022-09-01T04:28:23.236Z,57.25
2022-09-01T04:28:56.218Z,54.75
2022-09-01T04:29:29.603Z,28.85
2022-09-01T04:30:05.749Z,46.40
2022-09-01T04:30:41.030Z,54.80
2022-09-01T04:31:20.431Z,53.22
2022-09-01T04:31:59.406Z,64.00
2022-09-01T04:32:32.636Z,50.17
2022-09-01T04:33:07.528Z,70.88
2022-09-01T04:33:44.771Z,73.70
2022-09-01T04:34:17.453Z,59.55
2022-09-01T04:34:52.336Z,53.78
2022-09-01T04:35:37.792Z,52.22
2022-09-01T04:36:19.798Z,46.72
2022-09-01T04:36:57.012Z,46.30
2022-09-01T04:37:30.202Z,43.08
2022-09-01T04:38:06.001Z,56.03
2022-09-01T04:38:41.083Z,43.85
2022-09-01T04:39:13.474Z,77.20
2022-09-01T04:39:54.832Z,50.72
2022-09-01T04:40:31.157Z,54.95
2022-09-01T04:41:06.628Z,41.67
2022-09-01T04:41:46.100Z,53.17
2022-09-01T04:42:23.601Z,46.47
2022-09-01T04:42:55.959Z,48.08
2022-09-01T04:43:31.110Z,44.83
2022-09-01T04:44:07.977Z,58.22
2022-09-01T04:44:42.987Z,46.53
2022-09-01T04:45:22.506Z,37.10
2022-09-01T04:45:56.950Z,65.68
2022-09-01T04:46:31.521Z,34.53
2022-09-01T04:47:11.017Z,38.72
2022-09-01T04:47:43.347Z,63.33
2022-09-01T04:48:22.289Z,40.10
2022-09-01T04:48:58.576Z,50.17
2022-09-01T04:49:33.889Z,43.33
2022-09-01T04:50:14.711Z,46.50
2022-09-01T04:50:52.099Z,67.85
2022-09-01T04:52:00.602Z,58.13
2022-09-01T04:52:33.205Z,31.77
2022-09-01T04:53:07.913Z,63.83
2022-09-01T04:53:48.951Z,46.58
2022-09-01T04:54:24.314Z,54.55
2022-09-01T04:54:56.544Z,59.50
2022-09-01T04:55:32.161Z,80.88
2022-09-01T04:56:05.554Z,66.72
2022-09-01T04:56:46.231Z,78.10
2022-09-01T04:57:20.861Z,76.00
2022-09-01T04:57:54.922Z,49.67
2022-09-01T04:58:30.912Z,42.28
2022-09-01T04:59:07.082Z,39.90
2022-09-01T04:59:39.705Z,47.10
2022-09-01T05:00:22.681Z,87.90
2022-09-01T05:00:56.081Z,41.08
2022-09-01T05:01:32.097Z,31.02
2022-09-01T05:02:07.883Z,31.63
2022-09-01T05:02:40.723Z,38.17
2022-09-01T05:03:13.003Z,37.33
2022-09-01T05:04:01.572Z,51.17
2022-09-01T05:04:46.578Z,78.35
2022-09-01T05:05:22.643Z,82.78
2022-09-01T05:05:54.961Z,52.05
2022-09-01T05:06:29.495Z,65.65
2022-09-01T05:07:10.381Z,46.20
2022-09-01T05:07:44.810Z,41.35
2022-09-01T05:08:23.847Z,60.70
2022-09-01T05:09:00.818Z,85.50
2022-09-01T05:09:46.838Z,54.38
2022-09-01T05:10:49.795Z,45.15
2022-09-01T05:11:37.572Z,96.65
2022-09-01T05:12:16.701Z,95.25
2022-09-01T05:12:53.993Z,42.92
2022-09-01T05:13:27.446Z,65.10
2022-09-01T05:13:59.677Z,48.05
2022-09-01T05:14:34.437Z,51.80
2022-09-01T05:15:09.604Z,50.95
2022-09-01T05:15:46.772Z,87.60
2022-09-01T05:16:25.468Z,58.53
2022-09-01T05:17:01.999Z,80.30
2022-09-01T05:17:34.303Z,116.63
2022-09-01T05:18:10.218Z,67.68
2022-09-01T05:18:47.902Z,59.55
2022-09-01T05:19:21.714Z,25.33
2022-09-01T05:19:57.092Z,59.00
2022-09-01T05:20:32.633Z,136.25
2022-09-01T05:21:10.008Z,54.55
2022-09-01T05:21:45.880Z,54.17
2022-09-01T05:22:23.236Z,34.53
2022-09-01T05:23:05.224Z,54.45
2022-09-01T05:23:38.445Z,67.65
2022-09-01T05:24:14.953Z,61.38
2022-09-01T05:24:47.230Z,56.28
2022-09-01T05:25:19.473Z,85.60
2022-09-01T05:25:55.406Z,80.65
2022-09-01T05:26:31.814Z,37.17
2022-09-01T05:27:05.114Z,70.53
2022-09-01T05:27:49.739Z,111.25
2022-09-01T05:28:25.461Z,45.42
2022-09-01T05:29:02.948Z,69.20
2022-09-01T05:29:38.101Z,43.60
2022-09-01T05:30:12.926Z,100.05
2022-09-01T05:30:49.913Z,65.38
2022-09-01T05:31:23.544Z,51.65
2022-09-01T05:31:57.159Z,41.35
2022-09-01T05:32:33.732Z,26.55
2022-09-01T05:33:11.784Z,53.28
2022-09-01T05:33:46.116Z,69.43
2022-09-01T05:34:27.105Z,33.05
2022-09-01T05:35:00.009Z,51.95
2022-09-01T05:35:32.581Z,34.65
2022-09-01T05:36:08.502Z,35.92
2022-09-01T05:36:46.354Z,35.50
2022-09-01T05:37:21.874Z,43.30
2022-09-01T05:37:59.064Z,55.85
2022-09-01T05:38:31.528Z,108.55
2022-09-01T05:39:05.889Z,52.30
2022-09-01T05:39:41.152Z,62.47
2022-09-01T05:40:16.532Z,75.88
2022-09-01T05:41:02.177Z,68.43
2022-09-01T05:41:35.903Z,128.68
2022-09-01T05:42:10.950Z,105.80
2022-09-01T05:42:44.866Z,75.60
2022-09-01T05:43:17.870Z,84.47
2022-09-01T05:43:59.421Z,60.65
2022-09-01T05:44:32.582Z,32.22
2022-09-01T05:45:08.520Z,57.30
2022-09-01T05:46:05.162Z,61.47
2022-09-01T05:46:40.458Z,120.82
2022-09-01T05:47:20.464Z,53.53
2022-09-01T05:47:55.175Z,79.70
2022-09-01T05:48:31.726Z,52.13
2022-09-01T05:49:06.652Z,68.97
2022-09-01T05:49:40.824Z,72.47
2022-09-01T05:50:16.750Z,79.50
2022-09-01T05:50:49.673Z,92.32
2022-09-01T05:51:43.191Z,79.50
2022-09-01T05:52:26.366Z,155.15
2022-09-01T05:53:02.877Z,86.78
2022-09-01T05:53:36.245Z,84.70
2022-09-01T05:54:12.491Z,86.57
2022-09-01T05:54:47.346Z,111.30
2022-09-01T05:55:23.058Z,124.72
2022-09-01T05:55:59.441Z,87.80
2022-09-01T05:56:32.761Z,116.65
2022-09-01T05:57:30.264Z,66.55
2022-09-01T05:58:03.509Z,67.65
2022-09-01T05:59:34.262Z,58.95
2022-09-01T06:00:12.565Z,58.53
2022-09-01T06:00:49.281Z,75.22
2022-09-01T06:01:26.479Z,57.40
2022-09-01T06:01:59.535Z,62.05
2022-09-01T06:02:34.265Z,76.97
2022-09-01T06:03:09.526Z,42.33
2022-09-01T06:03:44.806Z,67.85
2022-09-01T06:04:24.864Z,74.05
2022-09-01T06:05:00.008Z,54.10
2022-09-01T06:05:40.048Z,58.45
2022-09-01T06:06:16.768Z,55.92
2022-09-01T06:07:06.898Z,60.72
2022-09-01T06:07:44.407Z,76.32
2022-09-01T06:08:23.182Z,74.53
2022-09-01T06:08:59.047Z,88.18
2022-09-01T06:09:32.178Z,64.35
2022-09-01T06:10:08.143Z,65.88
2022-09-01T06:10:42.114Z,50.47
2022-09-01T06:11:15.186Z,74.50
2022-09-01T06:11:50.884Z,77.18
2022-09-01T06:12:24.036Z,77.65
2022-09-01T06:13:01.962Z,120.88
2022-09-01T06:13:34.664Z,89.32
2022-09-01T06:14:08.822Z,69.97
2022-09-01T06:14:43.664Z,72.88
2022-09-01T06:15:18.640Z,53.92
2022-09-01T06:15:56.734Z,40.25
2022-09-01T06:16:33.039Z,59.75
2022-09-01T06:17:06.798Z,46.95
2022-09-01T06:17:39.399Z,101.72
2022-09-01T06:18:15.367Z,72.57
2022-09-01T06:18:58.098Z,59.70
2022-09-01T06:19:37.237Z,54.25
2022-09-01T06:20:10.917Z,48.35
2022-09-01T06:20:50.852Z,56.58
2022-09-01T06:21:24.830Z,82.78
2022-09-01T06:21:57.124Z,67.07
2022-09-01T06:22:32.632Z,68.90
2022-09-01T06:23:04.844Z,62.13
2022-09-01T06:23:39.835Z,59.83
2022-09-01T06:24:15.074Z,67.10
2022-09-01T06:24:54.559Z,60.53
2022-09-01T06:25:30.743Z,74.25
2022-09-01T06:26:04.290Z,63.80
2022-09-01T06:26:39.030Z,91.63
2022-09-01T06:27:18.140Z,40.15
2022-09-01T06:27:52.550Z,65.70
2022-09-01T06:28:25.476Z,40.95
2022-09-01T06:29:03.428Z,49.47
2022-09-01T06:29:36.149Z,65.40
2022-09-01T06:30:15.311Z,40.97
2022-09-01T06:30:57.463Z,52.13
2022-09-01T06:31:34.329Z,43.13
2022-09-01T06:32:12.677Z,40.97
2022-09-01T06:32:49.837Z,113.00
2022-09-01T06:33:23.150Z,58.53
2022-09-01T06:34:00.451Z,52.03
2022-09-01T06:34:33.890Z,85.90
2022-09-01T06:35:09.405Z,95.90
2022-09-01T06:35:47.754Z,52.90
2022-09-01T06:36:23.859Z,51.20
2022-09-01T06:36:56.336Z,83.90
2022-09-01T06:37:32.826Z,60.25
2022-09-01T06:38:08.559Z,102.43
2022-09-01T06:38:57.950Z,61.55
2022-09-01T06:39:31.853Z,74.47
2022-09-01T06:40:05.979Z,67.97
2022-09-01T06:40:42.812Z,49.58
2022-09-01T06:41:19.401Z,66.10
2022-09-01T06:41:53.349Z,59.75
2022-09-01T06:42:35.374Z,52.03
2022-09-01T06:43:09.373Z,65.75
2022-09-01T06:43:44.749Z,90.90
2022-09-01T06:44:22.411Z,78.78
2022-09-01T06:45:02.983Z,65.75
2022-09-01T06:45:43.576Z,82.03
2022-09-01T06:46:16.824Z,79.60
2022-09-01T06:46:52.074Z,75.97
2022-09-01T06:47:24.504Z,52.92
2022-09-01T06:48:00.174Z,110.40
2022-09-01T06:48:36.008Z,58.58
2022-09-01T06:49:12.381Z,47.78
2022-09-01T06:49:44.951Z,49.58
2022-09-01T06:51:22.332Z,78.13
2022-09-01T06:52:00.291Z,82.82
2022-09-01T06:53:32.904Z,65.32
2022-09-01T06:54:14.350Z,76.25
2022-09-01T06:54:52.287Z,61.25
2022-09-01T06:55:24.762Z,56.88
2022-09-01T06:55:57.081Z,63.20
2022-09-01T06:56:38.920Z,82.53
2022-09-01T06:58:15.652Z,82.95
2022-09-01T06:58:54.318Z,61.50
2022-09-01T06:59:34.697Z,43.90
2022-09-01T07:00:18.745Z,50.15
2022-09-01T07:00:55.536Z,66.18
2022-09-01T07:01:28.437Z,71.32
2022-09-01T07:02:04.908Z,99.93
2022-09-01T07:03:09.453Z,130.30
2022-09-01T07:03:53.320Z,49.53
2022-09-01T07:04:39.567Z,93.88
2022-09-01T07:05:59.796Z,86.43
2022-09-01T07:06:07.283Z,83.68
2022-09-01T07:07:54.241Z,73.00
2022-09-01T07:08:22.169Z,85.95
2022-09-01T07:09:20.678Z,72.78
2022-09-01T07:10:21.411Z,76.10
2022-09-01T07:12:08.144Z,64.20
2022-09-01T07:12:25.359Z,69.07
2022-09-01T07:13:08.986Z,45.55
2022-09-01T07:14:15.231Z,64.65
2022-09-01T07:16:33.888Z,89.68
2022-09-01T07:17:23.787Z,54.30
2022-09-01T07:18:00.557Z,75.28
2022-09-01T07:18:34.198Z,69.70
2022-09-01T07:19:13.433Z,57.78
2022-09-01T07:19:53.912Z,87.65
2022-09-01T07:20:37.654Z,56.35
2022-09-01T07:23:20.580Z,51.53
2022-09-01T07:24:13.482Z,54.22
2022-09-01T07:25:12.344Z,97.22
2022-09-01T07:26:53.146Z,75.25
2022-09-01T07:27:35.615Z,57.72
2022-09-01T07:28:15.685Z,73.70
2022-09-01T07:28:51.007Z,48.85
2022-09-01T07:29:25.868Z,33.83
2022-09-01T07:29:59.582Z,44.38
2022-09-01T07:30:33.553Z,96.93
2022-09-01T07:33:41.633Z,53.92
2022-09-01T07:33:55.671Z,64.72
2022-09-01T07:34:50.120Z,62.58
2022-09-01T07:35:23.009Z,72.45
2022-09-01T07:38:49.762Z,83.50
2022-09-01T07:39:48.473Z,59.90
2022-09-01T07:42:56.294Z,52.90
2022-09-01T07:42:58.904Z,83.20
2022-09-01T07:43:11.649Z,81.95
2022-09-01T07:44:13.867Z,91.85
2022-09-01T07:44:52.249Z,88.88
2022-09-01T07:45:47.815Z,64.78
2022-09-01T07:46:41.284Z,78.50
2022-09-01T07:47:20.329Z,69.82
2022-09-01T07:48:35.937Z,101.20
2022-09-01T07:51:52.148Z,90.57
2022-09-01T07:52:25.870Z,85.40
2022-09-01T07:53:02.960Z,113.85
2022-09-01T07:53:39.114Z,73.10
2022-09-01T07:54:15.449Z,99.72
2022-09-01T07:54:50.411Z,78.60
2022-09-01T07:55:22.690Z,94.65
2022-09-01T07:56:02.719Z,115.53
2022-09-01T07:56:39.924Z,97.50
2022-09-01T07:57:15.166Z,60.05
2022-09-01T07:57:51.370Z,40.83
2022-09-01T07:58:26.406Z,50.30
2022-09-01T07:59:08.288Z,33.15
2022-09-01T07:59:43.849Z,70.10
2022-09-01T08:00:22.321Z,48.65
2022-09-01T08:01:02.996Z,61.97
2022-09-01T08:01:35.414Z,86.60
2022-09-01T08:02:07.867Z,53.70
2022-09-01T08:02:44.420Z,47.60
2022-09-01T08:03:21.697Z,50.25
2022-09-01T08:03:58.642Z,70.45
2022-09-01T08:04:31.811Z,57.45
2022-09-01T08:05:09.564Z,37.85
2022-09-01T08:05:45.899Z,76.30
2022-09-01T08:06:20.822Z,44.05
2022-09-01T08:06:57.946Z,65.90
2022-09-01T08:07:30.244Z,65.28
2022-09-01T08:08:02.892Z,90.30
2022-09-01T08:08:42.517Z,66.53
2022-09-01T08:09:25.336Z,63.08
2022-09-01T08:10:10.125Z,77.93
2022-09-01T08:10:49.006Z,57.42
2022-09-01T08:11:58.327Z,47.78
2022-09-01T08:12:30.856Z,63.50
2022-09-01T08:13:03.059Z,68.57
2022-09-01T08:13:41.712Z,91.18
2022-09-01T08:14:18.124Z,72.13
2022-09-01T08:16:52.255Z,59.70